sensor_id;sensor_type;location;lat;lon;timestamp;pressure;altitude;pressure_sealevel;temperature;humidity
78841;BME280;68379;47.190;27.558;2023-04-23T00:00:34;99801.97;;;8.68;58.73
78841;BME280;68379;47.190;27.558;2023-04-23T00:03:27;99800.60;;;8.67;58.78
78841;BME280;68379;47.190;27.558;2023-04-23T00:06:00;99800.75;;;8.67;58.88
78841;BME280;68379;47.190;27.558;2023-04-23T00:08:34;99798.80;;;8.68;58.99
78841;BME280;68379;47.190;27.558;2023-04-23T00:11:11;99800.29;;;8.70;59.10
78841;BME280;68379;47.190;27.558;2023-04-23T00:13:44;99799.74;;;8.71;59.03
78841;BME280;68379;47.190;27.558;2023-04-23T00:16:18;99802.27;;;8.75;59.05
78841;BME280;68379;47.190;27.558;2023-04-23T00:18:48;99800.95;;;8.77;58.68
78841;BME280;68379;47.190;27.558;2023-04-23T00:21:20;99805.27;;;8.79;59.42
78841;BME280;68379;47.190;27.558;2023-04-23T00:23:52;99800.94;;;8.83;59.36
78841;BME280;68379;47.190;27.558;2023-04-23T00:26:23;99805.23;;;8.86;58.84
78841;BME280;68379;47.190;27.558;2023-04-23T00:28:55;99807.30;;;8.88;58.56
78841;BME280;68379;47.190;27.558;2023-04-23T00:31:27;99807.43;;;8.89;58.50
78841;BME280;68379;47.190;27.558;2023-04-23T00:34:00;99804.67;;;8.92;58.52
78841;BME280;68379;47.190;27.558;2023-04-23T00:36:32;99808.21;;;8.97;58.33
78841;BME280;68379;47.190;27.558;2023-04-23T00:39:04;99807.92;;;9.01;58.26
78841;BME280;68379;47.190;27.558;2023-04-23T00:41:40;99809.35;;;9.05;58.31
78841;BME280;68379;47.190;27.558;2023-04-23T00:44:13;99808.17;;;9.10;58.33
78841;BME280;68379;47.190;27.558;2023-04-23T00:46:45;99808.41;;;9.13;58.15
78841;BME280;68379;47.190;27.558;2023-04-23T00:49:18;99807.45;;;9.15;58.15
78841;BME280;68379;47.190;27.558;2023-04-23T00:51:49;99811.77;;;9.17;58.20
78841;BME280;68379;47.190;27.558;2023-04-23T00:54:21;99808.95;;;9.18;58.17
78841;BME280;68379;47.190;27.558;2023-04-23T00:56:53;99806.84;;;9.17;58.33
78841;BME280;68379;47.190;27.558;2023-04-23T00:59:27;99812.81;;;9.18;58.30
78841;BME280;68379;47.190;27.558;2023-04-23T01:02:00;99811.89;;;9.19;58.30
78841;BME280;68379;47.190;27.558;2023-04-23T01:04:32;99811.84;;;9.21;58.19
78841;BME280;68379;47.190;27.558;2023-04-23T01:07:06;99815.14;;;9.22;58.36
78841;BME280;68379;47.190;27.558;2023-04-23T01:09:38;99810.69;;;9.23;58.13
78841;BME280;68379;47.190;27.558;2023-04-23T01:12:10;99803.72;;;9.26;58.00
78841;BME280;68379;47.190;27.558;2023-04-23T01:14:42;99809.16;;;9.27;58.04
78841;BME280;68379;47.190;27.558;2023-04-23T01:17:14;99809.63;;;9.29;57.86
78841;BME280;68379;47.190;27.558;2023-04-23T01:19:46;99810.16;;;9.28;57.97
78841;BME280;68379;47.190;27.558;2023-04-23T01:22:18;99810.76;;;9.26;58.08
78841;BME280;68379;47.190;27.558;2023-04-23T01:24:50;99805.54;;;9.24;58.09
78841;BME280;68379;47.190;27.558;2023-04-23T01:27:22;99805.81;;;9.22;58.14
78841;BME280;68379;47.190;27.558;2023-04-23T01:29:57;99809.02;;;9.21;58.16
78841;BME280;68379;47.190;27.558;2023-04-23T01:32:29;99808.04;;;9.19;58.38
78841;BME280;68379;47.190;27.558;2023-04-23T01:35:02;99805.96;;;9.17;58.42
78841;BME280;68379;47.190;27.558;2023-04-23T01:37:36;99808.03;;;9.13;58.52
78841;BME280;68379;47.190;27.558;2023-04-23T01:40:10;99809.59;;;9.09;58.59
78841;BME280;68379;47.190;27.558;2023-04-23T01:42:41;99811.84;;;9.04;58.97
78841;BME280;68379;47.190;27.558;2023-04-23T01:45:14;99808.46;;;9.00;59.17
78841;BME280;68379;47.190;27.558;2023-04-23T01:47:46;99809.84;;;8.96;59.34
78841;BME280;68379;47.190;27.558;2023-04-23T01:50:18;99812.44;;;8.92;59.62
78841;BME280;68379;47.190;27.558;2023-04-23T01:52:53;99810.40;;;8.90;59.57
78841;BME280;68379;47.190;27.558;2023-04-23T01:55:25;99806.92;;;8.88;59.31
78841;BME280;68379;47.190;27.558;2023-04-23T01:57:57;99807.66;;;8.88;59.50
78841;BME280;68379;47.190;27.558;2023-04-23T02:00:29;99804.02;;;8.86;59.56
78841;BME280;68379;47.190;27.558;2023-04-23T02:03:01;99803.20;;;8.83;59.78
78841;BME280;68379;47.190;27.558;2023-04-23T02:05:34;99801.17;;;8.81;59.74
78841;BME280;68379;47.190;27.558;2023-04-23T02:08:04;99801.84;;;8.77;60.23
78841;BME280;68379;47.190;27.558;2023-04-23T02:10:36;99799.57;;;8.71;60.31
78841;BME280;68379;47.190;27.558;2023-04-23T02:13:08;99799.57;;;8.65;60.56
78841;BME280;68379;47.190;27.558;2023-04-23T02:15:41;99798.92;;;8.58;61.27
78841;BME280;68379;47.190;27.558;2023-04-23T02:18:11;99799.45;;;8.53;60.79
78841;BME280;68379;47.190;27.558;2023-04-23T02:20:43;99799.84;;;8.46;61.38
78841;BME280;68379;47.190;27.558;2023-04-23T02:23:15;99803.38;;;8.39;61.52
78841;BME280;68379;47.190;27.558;2023-04-23T02:25:47;99798.09;;;8.33;61.65
78841;BME280;68379;47.190;27.558;2023-04-23T02:28:19;99801.06;;;8.28;61.85
78841;BME280;68379;47.190;27.558;2023-04-23T02:30:51;99804.77;;;8.22;61.67
78841;BME280;68379;47.190;27.558;2023-04-23T02:33:23;99804.17;;;8.18;61.74
78841;BME280;68379;47.190;27.558;2023-04-23T02:35:55;99806.74;;;8.15;61.95
78841;BME280;68379;47.190;27.558;2023-04-23T02:38:27;99803.13;;;8.12;62.11
78841;BME280;68379;47.190;27.558;2023-04-23T02:40:58;99805.34;;;8.08;62.14
78841;BME280;68379;47.190;27.558;2023-04-23T02:43:30;99807.77;;;8.04;62.28
78841;BME280;68379;47.190;27.558;2023-04-23T02:46:03;99813.70;;;8.00;62.40
78841;BME280;68379;47.190;27.558;2023-04-23T02:48:39;99810.65;;;7.96;62.59
78841;BME280;68379;47.190;27.558;2023-04-23T02:51:13;99806.92;;;7.91;62.70
78841;BME280;68379;47.190;27.558;2023-04-23T02:53:45;99811.45;;;7.87;62.85
78841;BME280;68379;47.190;27.558;2023-04-23T02:56:16;99814.70;;;7.83;62.91
78841;BME280;68379;47.190;27.558;2023-04-23T02:58:48;99817.60;;;7.80;63.03
78841;BME280;68379;47.190;27.558;2023-04-23T03:01:20;99809.53;;;7.80;63.13
78841;BME280;68379;47.190;27.558;2023-04-23T03:03:52;99809.49;;;7.81;63.03
78841;BME280;68379;47.190;27.558;2023-04-23T03:06:24;99814.54;;;7.83;63.13
78841;BME280;68379;47.190;27.558;2023-04-23T03:08:56;99812.21;;;7.84;63.12
78841;BME280;68379;47.190;27.558;2023-04-23T03:11:29;99813.59;;;7.86;63.03
78841;BME280;68379;47.190;27.558;2023-04-23T03:14:02;99814.45;;;7.87;62.95
78841;BME280;68379;47.190;27.558;2023-04-23T03:16:34;99812.82;;;7.88;62.94
78841;BME280;68379;47.190;27.558;2023-04-23T03:19:06;99814.73;;;7.88;63.09
78841;BME280;68379;47.190;27.558;2023-04-23T03:21:38;99816.85;;;7.88;63.13
78841;BME280;68379;47.190;27.558;2023-04-23T03:24:11;99818.60;;;7.88;63.18
78841;BME280;68379;47.190;27.558;2023-04-23T03:26:43;99818.97;;;7.88;63.44
78841;BME280;68379;47.190;27.558;2023-04-23T03:29:15;99816.91;;;7.86;63.53
78841;BME280;68379;47.190;27.558;2023-04-23T03:31:47;99816.05;;;7.85;63.33
78841;BME280;68379;47.190;27.558;2023-04-23T03:34:19;99817.61;;;7.87;63.32
78841;BME280;68379;47.190;27.558;2023-04-23T03:36:51;99816.47;;;7.89;63.29
78841;BME280;68379;47.190;27.558;2023-04-23T03:39:23;99814.77;;;7.94;63.25
78841;BME280;68379;47.190;27.558;2023-04-23T03:41:54;99819.76;;;7.97;63.23
78841;BME280;68379;47.190;27.558;2023-04-23T03:44:27;99819.48;;;8.01;63.18
78841;BME280;68379;47.190;27.558;2023-04-23T03:47:02;99821.69;;;8.03;63.26
78841;BME280;68379;47.190;27.558;2023-04-23T03:49:34;99824.64;;;8.05;63.39
78841;BME280;68379;47.190;27.558;2023-04-23T03:52:05;99830.03;;;8.07;63.31
78841;BME280;68379;47.190;27.558;2023-04-23T03:54:37;99830.51;;;8.08;63.36
78841;BME280;68379;47.190;27.558;2023-04-23T03:57:09;99833.80;;;8.10;63.54
78841;BME280;68379;47.190;27.558;2023-04-23T03:59:41;99833.25;;;8.11;63.48
78841;BME280;68379;47.190;27.558;2023-04-23T04:02:12;99836.20;;;8.12;63.40
78841;BME280;68379;47.190;27.558;2023-04-23T04:04:45;99835.66;;;8.13;63.45
78841;BME280;68379;47.190;27.558;2023-04-23T04:07:18;99835.57;;;8.16;63.32
78841;BME280;68379;47.190;27.558;2023-04-23T04:09:51;99838.44;;;8.19;63.36
78841;BME280;68379;47.190;27.558;2023-04-23T04:12:23;99841.11;;;8.25;63.31
78841;BME280;68379;47.190;27.558;2023-04-23T04:14:55;99840.52;;;8.33;63.10
78841;BME280;68379;47.190;27.558;2023-04-23T04:17:27;99847.48;;;8.42;63.03
78841;BME280;68379;47.190;27.558;2023-04-23T04:19:59;99853.92;;;8.50;62.87
78841;BME280;68379;47.190;27.558;2023-04-23T04:22:31;99856.08;;;8.60;62.82
78841;BME280;68379;47.190;27.558;2023-04-23T04:25:07;99855.23;;;8.71;62.66
78841;BME280;68379;47.190;27.558;2023-04-23T04:27:39;99858.26;;;8.81;62.42
78841;BME280;68379;47.190;27.558;2023-04-23T04:30:11;99863.13;;;8.88;62.37
78841;BME280;68379;47.190;27.558;2023-04-23T04:32:43;99861.31;;;8.96;62.40
78841;BME280;68379;47.190;27.558;2023-04-23T04:35:15;99861.10;;;9.02;62.58
78841;BME280;68379;47.190;27.558;2023-04-23T04:37:47;99864.42;;;9.08;62.34
78841;BME280;68379;47.190;27.558;2023-04-23T04:40:18;99863.91;;;9.13;62.25
78841;BME280;68379;47.190;27.558;2023-04-23T04:42:50;99867.61;;;9.18;62.28
78841;BME280;68379;47.190;27.558;2023-04-23T04:45:22;99866.92;;;9.23;62.28
78841;BME280;68379;47.190;27.558;2023-04-23T04:47:54;99867.00;;;9.26;62.21
78841;BME280;68379;47.190;27.558;2023-04-23T04:50:26;99875.29;;;9.26;61.92
78841;BME280;68379;47.190;27.558;2023-04-23T04:52:58;99871.78;;;9.20;62.02
78841;BME280;68379;47.190;27.558;2023-04-23T04:55:31;99876.41;;;9.14;62.14
78841;BME280;68379;47.190;27.558;2023-04-23T04:58:03;99879.98;;;9.07;62.33
78841;BME280;68379;47.190;27.558;2023-04-23T05:00:35;99878.17;;;9.03;62.77
78841;BME280;68379;47.190;27.558;2023-04-23T05:03:10;99880.26;;;9.04;63.80
78841;BME280;68379;47.190;27.558;2023-04-23T05:05:43;99879.70;;;9.10;63.95
78841;BME280;68379;47.190;27.558;2023-04-23T05:08:15;99883.23;;;9.21;63.78
78841;BME280;68379;47.190;27.558;2023-04-23T05:10:47;99886.25;;;9.36;63.15
78841;BME280;68379;47.190;27.558;2023-04-23T05:13:20;99885.52;;;9.47;62.79
78841;BME280;68379;47.190;27.558;2023-04-23T05:15:52;99885.02;;;9.56;62.65
78841;BME280;68379;47.190;27.558;2023-04-23T05:18:24;99889.48;;;9.65;62.60
78841;BME280;68379;47.190;27.558;2023-04-23T05:20:55;99890.68;;;9.71;62.71
78841;BME280;68379;47.190;27.558;2023-04-23T05:23:27;99887.11;;;9.77;63.08
78841;BME280;68379;47.190;27.558;2023-04-23T05:25:59;99883.14;;;9.85;62.95
78841;BME280;68379;47.190;27.558;2023-04-23T05:28:32;99885.45;;;9.94;63.11
78841;BME280;68379;47.190;27.558;2023-04-23T05:31:04;99888.54;;;10.02;63.43
78841;BME280;68379;47.190;27.558;2023-04-23T05:33:36;99891.30;;;10.08;63.20
78841;BME280;68379;47.190;27.558;2023-04-23T05:36:08;99893.45;;;10.17;63.16
78841;BME280;68379;47.190;27.558;2023-04-23T05:38:40;99893.77;;;10.28;63.14
78841;BME280;68379;47.190;27.558;2023-04-23T05:41:12;99892.63;;;10.36;62.79
78841;BME280;68379;47.190;27.558;2023-04-23T05:43:44;99895.98;;;10.44;62.62
78841;BME280;68379;47.190;27.558;2023-04-23T05:46:15;99896.83;;;10.55;62.28
78841;BME280;68379;47.190;27.558;2023-04-23T05:48:47;99898.70;;;10.65;62.08
78841;BME280;68379;47.190;27.558;2023-04-23T05:51:19;99903.41;;;10.77;61.87
78841;BME280;68379;47.190;27.558;2023-04-23T05:53:51;99902.95;;;10.88;61.42
78841;BME280;68379;47.190;27.558;2023-04-23T05:56:22;99902.46;;;11.00;61.00
78841;BME280;68379;47.190;27.558;2023-04-23T05:58:54;99898.84;;;11.11;60.56
78841;BME280;68379;47.190;27.558;2023-04-23T06:01:26;99904.13;;;11.21;60.35
78841;BME280;68379;47.190;27.558;2023-04-23T06:03:58;99905.02;;;11.33;60.76
78841;BME280;68379;47.190;27.558;2023-04-23T06:06:29;99908.00;;;11.42;61.32
78841;BME280;68379;47.190;27.558;2023-04-23T06:09:02;99908.69;;;11.51;60.87
78841;BME280;68379;47.190;27.558;2023-04-23T06:11:33;99908.42;;;11.62;60.86
78841;BME280;68379;47.190;27.558;2023-04-23T06:14:06;99907.10;;;11.76;61.07
78841;BME280;68379;47.190;27.558;2023-04-23T06:16:37;99912.98;;;11.92;60.86
78841;BME280;68379;47.190;27.558;2023-04-23T06:19:09;99914.19;;;12.05;59.74
78841;BME280;68379;47.190;27.558;2023-04-23T06:21:41;99911.33;;;12.14;59.36
78841;BME280;68379;47.190;27.558;2023-04-23T06:24:12;99913.45;;;12.26;59.51
78841;BME280;68379;47.190;27.558;2023-04-23T06:26:47;99915.62;;;12.40;59.41
78841;BME280;68379;47.190;27.558;2023-04-23T06:29:19;99915.55;;;12.49;58.82
78841;BME280;68379;47.190;27.558;2023-04-23T06:31:56;99915.23;;;12.60;59.02
78841;BME280;68379;47.190;27.558;2023-04-23T06:34:28;99917.35;;;12.72;58.72
78841;BME280;68379;47.190;27.558;2023-04-23T06:37:00;99916.60;;;12.84;58.62
78841;BME280;68379;47.190;27.558;2023-04-23T06:39:32;99920.08;;;12.97;57.98
78841;BME280;68379;47.190;27.558;2023-04-23T06:42:04;99919.48;;;13.09;57.19
78841;BME280;68379;47.190;27.558;2023-04-23T06:44:36;99915.84;;;13.18;57.39
78841;BME280;68379;47.190;27.558;2023-04-23T06:47:08;99921.27;;;13.27;57.13
78841;BME280;68379;47.190;27.558;2023-04-23T06:49:40;99919.00;;;13.34;56.63
78841;BME280;68379;47.190;27.558;2023-04-23T06:52:12;99920.19;;;13.42;56.77
78841;BME280;68379;47.190;27.558;2023-04-23T06:54:43;99920.46;;;13.54;56.61
78841;BME280;68379;47.190;27.558;2023-04-23T06:57:15;99923.92;;;13.66;55.94
78841;BME280;68379;47.190;27.558;2023-04-23T06:59:47;99924.33;;;13.83;55.19
78841;BME280;68379;47.190;27.558;2023-04-23T07:02:19;99929.02;;;13.95;54.57
78841;BME280;68379;47.190;27.558;2023-04-23T07:04:50;99922.30;;;14.05;54.17
78841;BME280;68379;47.190;27.558;2023-04-23T07:07:22;99924.66;;;14.14;54.32
78841;BME280;68379;47.190;27.558;2023-04-23T07:09:54;99920.98;;;14.30;53.56
78841;BME280;68379;47.190;27.558;2023-04-23T07:12:26;99921.45;;;14.41;52.75
78841;BME280;68379;47.190;27.558;2023-04-23T07:14:57;99924.46;;;14.55;53.06
78841;BME280;68379;47.190;27.558;2023-04-23T07:17:30;99920.11;;;14.73;51.52
78841;BME280;68379;47.190;27.558;2023-04-23T07:20:03;99924.73;;;14.88;51.19
78841;BME280;68379;47.190;27.558;2023-04-23T07:22:36;99925.28;;;15.01;50.07
78841;BME280;68379;47.190;27.558;2023-04-23T07:25:09;99920.48;;;15.11;49.34
78841;BME280;68379;47.190;27.558;2023-04-23T07:27:40;99919.44;;;15.23;48.70
78841;BME280;68379;47.190;27.558;2023-04-23T07:30:13;99921.49;;;15.33;48.71
78841;BME280;68379;47.190;27.558;2023-04-23T07:32:45;99916.17;;;15.45;47.35
78841;BME280;68379;47.190;27.558;2023-04-23T07:35:17;99919.66;;;15.56;48.46
78841;BME280;68379;47.190;27.558;2023-04-23T07:37:49;99916.84;;;15.64;47.05
78841;BME280;68379;47.190;27.558;2023-04-23T07:40:23;99919.08;;;15.76;46.72
78841;BME280;68379;47.190;27.558;2023-04-23T07:42:55;99918.27;;;15.89;46.84
78841;BME280;68379;47.190;27.558;2023-04-23T07:45:28;99916.64;;;16.01;46.93
78841;BME280;68379;47.190;27.558;2023-04-23T07:48:00;99914.78;;;16.11;45.94
78841;BME280;68379;47.190;27.558;2023-04-23T07:50:32;99916.89;;;16.17;46.15
78841;BME280;68379;47.190;27.558;2023-04-23T07:53:04;99911.47;;;16.15;45.14
78841;BME280;68379;47.190;27.558;2023-04-23T07:55:36;99912.11;;;16.29;46.82
78841;BME280;68379;47.190;27.558;2023-04-23T07:58:09;99908.66;;;16.41;45.65
78841;BME280;68379;47.190;27.558;2023-04-23T08:00:41;99908.42;;;16.56;46.57
78841;BME280;68379;47.190;27.558;2023-04-23T08:03:14;99907.30;;;16.68;44.94
78841;BME280;68379;47.190;27.558;2023-04-23T08:05:47;99904.61;;;16.77;43.74
78841;BME280;68379;47.190;27.558;2023-04-23T08:08:21;99907.33;;;16.93;44.75
78841;BME280;68379;47.190;27.558;2023-04-23T08:10:56;99908.56;;;17.10;45.42
78841;BME280;68379;47.190;27.558;2023-04-23T08:13:30;99905.77;;;17.22;43.49
78841;BME280;68379;47.190;27.558;2023-04-23T08:16:04;99905.54;;;17.29;45.04
78841;BME280;68379;47.190;27.558;2023-04-23T08:18:39;99902.25;;;17.38;44.21
78841;BME280;68379;47.190;27.558;2023-04-23T08:21:12;99902.30;;;17.48;43.49
78841;BME280;68379;47.190;27.558;2023-04-23T08:23:45;99901.27;;;17.63;43.17
78841;BME280;68379;47.190;27.558;2023-04-23T08:26:19;99894.98;;;17.82;42.98
78841;BME280;68379;47.190;27.558;2023-04-23T08:28:53;99892.70;;;17.98;41.04
78841;BME280;68379;47.190;27.558;2023-04-23T08:31:27;99891.38;;;18.06;40.31
78841;BME280;68379;47.190;27.558;2023-04-23T08:34:00;99892.60;;;18.17;39.29
78841;BME280;68379;47.190;27.558;2023-04-23T08:36:32;99888.45;;;18.28;40.74
78841;BME280;68379;47.190;27.558;2023-04-23T08:39:05;99887.81;;;18.42;39.13
78841;BME280;68379;47.190;27.558;2023-04-23T08:41:41;99886.41;;;18.54;39.19
78841;BME280;68379;47.190;27.558;2023-04-23T08:44:20;99885.39;;;18.68;36.87
78841;BME280;68379;47.190;27.558;2023-04-23T08:46:54;99881.83;;;18.73;36.87
78841;BME280;68379;47.190;27.558;2023-04-23T08:49:29;99881.55;;;18.77;35.11
78841;BME280;68379;47.190;27.558;2023-04-23T08:52:14;99877.38;;;18.81;35.26
78841;BME280;68379;47.190;27.558;2023-04-23T08:54:51;99873.39;;;18.81;32.95
78841;BME280;68379;47.190;27.558;2023-04-23T08:57:31;99869.46;;;18.86;34.14
78841;BME280;68379;47.190;27.558;2023-04-23T09:00:07;99865.42;;;19.02;35.98
78841;BME280;68379;47.190;27.558;2023-04-23T09:02:41;99869.38;;;19.23;34.90
78841;BME280;68379;47.190;27.558;2023-04-23T09:05:14;99866.55;;;19.37;33.96
78841;BME280;68379;47.190;27.558;2023-04-23T09:07:46;99866.64;;;19.45;33.57
78841;BME280;68379;47.190;27.558;2023-04-23T09:10:18;99860.44;;;19.59;32.73
78841;BME280;68379;47.190;27.558;2023-04-23T09:12:49;99859.48;;;19.62;31.77
78841;BME280;68379;47.190;27.558;2023-04-23T09:15:22;99858.27;;;19.66;30.08
78841;BME280;68379;47.190;27.558;2023-04-23T09:17:54;99859.05;;;19.72;31.00
78841;BME280;68379;47.190;27.558;2023-04-23T09:20:26;99853.48;;;19.84;31.77
78841;BME280;68379;47.190;27.558;2023-04-23T09:22:58;99851.14;;;19.86;30.03
78841;BME280;68379;47.190;27.558;2023-04-23T09:25:30;99851.85;;;19.96;30.67
78841;BME280;68379;47.190;27.558;2023-04-23T09:28:03;99849.66;;;19.87;27.16
78841;BME280;68379;47.190;27.558;2023-04-23T09:30:44;99849.13;;;19.73;26.75
78841;BME280;68379;47.190;27.558;2023-04-23T09:33:17;99845.73;;;19.82;27.85
78841;BME280;68379;47.190;27.558;2023-04-23T09:35:51;99842.23;;;19.95;28.46
78841;BME280;68379;47.190;27.558;2023-04-23T09:38:23;99841.53;;;20.06;26.90
78841;BME280;68379;47.190;27.558;2023-04-23T09:40:54;99843.33;;;20.20;28.83
78841;BME280;68379;47.190;27.558;2023-04-23T09:43:31;99844.06;;;20.42;27.89
78841;BME280;68379;47.190;27.558;2023-04-23T09:46:02;99843.06;;;20.64;28.49
78841;BME280;68379;47.190;27.558;2023-04-23T09:48:43;99839.97;;;20.77;28.06
78841;BME280;68379;47.190;27.558;2023-04-23T09:51:16;99833.34;;;20.92;27.19
78841;BME280;68379;47.190;27.558;2023-04-23T09:53:48;99832.35;;;20.89;26.07
78841;BME280;68379;47.190;27.558;2023-04-23T09:56:20;99829.50;;;21.02;26.29
78841;BME280;68379;47.190;27.558;2023-04-23T09:58:51;99832.75;;;21.19;27.07
78841;BME280;68379;47.190;27.558;2023-04-23T10:01:30;99833.97;;;21.45;26.15
78841;BME280;68379;47.190;27.558;2023-04-23T10:04:02;99838.34;;;21.49;26.22
78841;BME280;68379;47.190;27.558;2023-04-23T10:06:37;99830.86;;;21.07;28.01
78841;BME280;68379;47.190;27.558;2023-04-23T10:09:09;99831.61;;;20.65;28.49
78841;BME280;68379;47.190;27.558;2023-04-23T10:11:42;99830.09;;;20.33;28.50
78841;BME280;68379;47.190;27.558;2023-04-23T10:14:17;99831.79;;;20.14;29.07
78841;BME280;68379;47.190;27.558;2023-04-23T10:16:55;99832.16;;;19.79;29.40
78841;BME280;68379;47.190;27.558;2023-04-23T10:19:29;99833.67;;;19.48;29.67
78841;BME280;68379;47.190;27.558;2023-04-23T10:22:07;99833.91;;;19.21;30.09
78841;BME280;68379;47.190;27.558;2023-04-23T10:24:41;99833.94;;;19.11;30.27
78841;BME280;68379;47.190;27.558;2023-04-23T10:27:16;99830.39;;;19.08;30.78
78841;BME280;68379;47.190;27.558;2023-04-23T10:29:49;99824.30;;;18.96;30.10
78841;BME280;68379;47.190;27.558;2023-04-23T10:32:21;99828.06;;;19.13;30.30
78841;BME280;68379;47.190;27.558;2023-04-23T10:34:54;99820.59;;;19.41;30.50
78841;BME280;68379;47.190;27.558;2023-04-23T10:37:28;99819.59;;;19.86;29.34
78841;BME280;68379;47.190;27.558;2023-04-23T10:40:09;99818.79;;;20.35;28.23
78841;BME280;68379;47.190;27.558;2023-04-23T10:42:43;99819.29;;;20.78;28.42
78841;BME280;68379;47.190;27.558;2023-04-23T10:45:17;99815.13;;;21.19;27.20
78841;BME280;68379;47.190;27.558;2023-04-23T10:47:50;99813.26;;;21.56;26.80
78841;BME280;68379;47.190;27.558;2023-04-23T10:50:25;99810.41;;;21.77;25.24
78841;BME280;68379;47.190;27.558;2023-04-23T10:52:57;99810.30;;;21.84;25.55
78841;BME280;68379;47.190;27.558;2023-04-23T10:55:30;99804.96;;;21.74;24.60
78841;BME280;68379;47.190;27.558;2023-04-23T10:58:05;99803.51;;;21.92;26.55
78841;BME280;68379;47.190;27.558;2023-04-23T11:00:46;99799.22;;;22.33;26.24
78841;BME280;68379;47.190;27.558;2023-04-23T11:03:38;99793.89;;;22.65;25.31
78841;BME280;68379;47.190;27.558;2023-04-23T11:06:17;99796.79;;;22.90;24.76
78841;BME280;68379;47.190;27.558;2023-04-23T11:08:54;99799.36;;;22.94;25.38
78841;BME280;68379;47.190;27.558;2023-04-23T11:11:41;99796.01;;;22.65;25.11
78841;BME280;68379;47.190;27.558;2023-04-23T11:14:13;99794.80;;;22.18;25.24
78841;BME280;68379;47.190;27.558;2023-04-23T11:16:45;99792.48;;;22.20;25.25
78841;BME280;68379;47.190;27.558;2023-04-23T11:19:18;99787.59;;;22.24;25.27
78841;BME280;68379;47.190;27.558;2023-04-23T11:22:04;99785.26;;;22.60;24.73
78841;BME280;68379;47.190;27.558;2023-04-23T11:24:38;99786.40;;;22.64;24.26
78841;BME280;68379;47.190;27.558;2023-04-23T11:27:13;99788.94;;;22.89;24.81
78841;BME280;68379;47.190;27.558;2023-04-23T11:29:46;99791.59;;;22.90;23.70
78841;BME280;68379;47.190;27.558;2023-04-23T11:32:16;99794.55;;;23.05;23.39
78841;BME280;68379;47.190;27.558;2023-04-23T11:34:48;99795.15;;;23.35;23.37
78841;BME280;68379;47.190;27.558;2023-04-23T11:37:23;99790.82;;;23.60;22.03
78841;BME280;68379;47.190;27.558;2023-04-23T11:39:54;99792.97;;;23.70;22.43
78841;BME280;68379;47.190;27.558;2023-04-23T11:42:26;99793.45;;;23.92;22.08
78841;BME280;68379;47.190;27.558;2023-04-23T11:44:58;99795.66;;;24.16;22.73
78841;BME280;68379;47.190;27.558;2023-04-23T11:47:30;99795.01;;;24.35;22.56
78841;BME280;68379;47.190;27.558;2023-04-23T11:50:03;99784.29;;;24.16;22.42
78841;BME280;68379;47.190;27.558;2023-04-23T11:52:35;99782.97;;;23.88;22.82
78841;BME280;68379;47.190;27.558;2023-04-23T11:55:08;99780.73;;;23.51;23.16
78841;BME280;68379;47.190;27.558;2023-04-23T11:57:45;99780.98;;;23.65;22.83
78841;BME280;68379;47.190;27.558;2023-04-23T12:00:20;99778.90;;;23.32;22.64
78841;BME280;68379;47.190;27.558;2023-04-23T12:02:54;99775.39;;;22.94;22.89
78841;BME280;68379;47.190;27.558;2023-04-23T12:05:30;99767.98;;;22.66;23.66
78841;BME280;68379;47.190;27.558;2023-04-23T12:08:10;99768.94;;;22.48;24.32
78841;BME280;68379;47.190;27.558;2023-04-23T12:10:48;99769.95;;;22.26;24.46
78841;BME280;68379;47.190;27.558;2023-04-23T12:13:22;99764.21;;;22.01;23.68
78841;BME280;68379;47.190;27.558;2023-04-23T12:15:56;99765.86;;;21.87;24.29
78841;BME280;68379;47.190;27.558;2023-04-23T12:18:32;99768.67;;;21.67;23.91
78841;BME280;68379;47.190;27.558;2023-04-23T12:21:08;99763.02;;;21.28;24.98
78841;BME280;68379;47.190;27.558;2023-04-23T12:23:41;99765.57;;;21.14;25.04
78841;BME280;68379;47.190;27.558;2023-04-23T12:26:14;99751.88;;;21.43;24.40
78841;BME280;68379;47.190;27.558;2023-04-23T12:28:51;99752.79;;;22.00;24.89
78841;BME280;68379;47.190;27.558;2023-04-23T12:31:25;99748.56;;;22.50;24.04
78841;BME280;68379;47.190;27.558;2023-04-23T12:34:03;99751.31;;;22.97;24.08
78841;BME280;68379;47.190;27.558;2023-04-23T12:36:36;99753.64;;;23.16;23.26
78841;BME280;68379;47.190;27.558;2023-04-23T12:39:25;99750.57;;;23.13;22.85
78841;BME280;68379;47.190;27.558;2023-04-23T12:42:00;99748.45;;;22.99;22.86
78841;BME280;68379;47.190;27.558;2023-04-23T12:44:34;99745.84;;;23.09;22.77
78841;BME280;68379;47.190;27.558;2023-04-23T12:47:08;99744.90;;;23.41;23.05
78841;BME280;68379;47.190;27.558;2023-04-23T12:49:41;99742.46;;;23.61;22.68
78841;BME280;68379;47.190;27.558;2023-04-23T12:52:13;99740.16;;;23.68;22.44
78841;BME280;68379;47.190;27.558;2023-04-23T12:54:45;99740.13;;;23.93;21.90
78841;BME280;68379;47.190;27.558;2023-04-23T12:57:22;99736.48;;;24.47;21.40
78841;BME280;68379;47.190;27.558;2023-04-23T12:59:54;99735.25;;;24.95;20.80
78841;BME280;68379;47.190;27.558;2023-04-23T13:02:27;99733.59;;;25.38;19.92
78841;BME280;68379;47.190;27.558;2023-04-23T13:04:59;99728.98;;;25.63;19.76
78841;BME280;68379;47.190;27.558;2023-04-23T13:07:31;99727.25;;;25.82;18.92
78841;BME280;68379;47.190;27.558;2023-04-23T13:10:04;99729.95;;;25.84;19.40
78841;BME280;68379;47.190;27.558;2023-04-23T13:12:36;99722.08;;;26.16;19.27
78841;BME280;68379;47.190;27.558;2023-04-23T13:15:10;99717.08;;;26.45;19.75
78841;BME280;68379;47.190;27.558;2023-04-23T13:17:43;99719.23;;;26.66;19.02
78841;BME280;68379;47.190;27.558;2023-04-23T13:20:15;99716.39;;;26.62;17.98
78841;BME280;68379;47.190;27.558;2023-04-23T13:22:47;99716.64;;;26.83;18.65
78841;BME280;68379;47.190;27.558;2023-04-23T13:25:19;99718.88;;;27.17;18.24